Julia — PF5957 — position and weather

sailwx.info

Track history (hours):
 
Tides and Currents Weather Stations Pressure Air Temp Water Temp Dewpoint Dewpoint Depression Visibility Wind Speed Wind Dir Waves Ship Positions

Julia

Last reported at 2017-Sep-23 21:04 UTC. Time now 2017-Sep-23 23:56 UTC.
Position N 38°32' W 028°38'.

Length 15 m.

Type: Sailing vessel. MMSI: 244180582.

Date/timePositionNaut miles runAvg speedWind from/ knotsBaromVisibWave heightAir tempDewpointWater temp
2017-Sep-23 21:04N 38°32' W 028°38'0 0.0
2017-Sep-23 20:58N 38°32' W 028°38'0 0.0
2017-Sep-23 20:28N 38°32' W 028°38'0 0.0
2017-Sep-23 19:58N 38°32' W 028°38'  
2017-Sep-15 11:59N 39°21' W 030°54'5 7.8
2017-Sep-15 11:18N 39°20' W 030°47'19 7.6
2017-Sep-15 08:53N 39°17' W 030°24'3 7.1
2017-Sep-15 08:29N 39°16' W 030°20'3 5.6
2017-Sep-15 07:56N 39°16' W 030°16'3 7.0
2017-Sep-15 07:29N 39°16' W 030°12'3 6.6
2017-Sep-15 07:00N 39°16' W 030°08'3 6.5
2017-Sep-15 06:30N 39°15' W 030°04'3 6.7
2017-Sep-15 06:00N 39°15' W 029°60'3 7.1
2017-Sep-15 05:30N 39°14' W 029°55'4 7.3
2017-Sep-15 05:00N 39°13' W 029°51'4 7.7
2017-Sep-15 04:30N 39°12' W 029°46'4 7.8
2017-Sep-15 04:00N 39°11' W 029°41'4 7.6
2017-Sep-15 03:30N 39°10' W 029°36'4 7.2
2017-Sep-15 03:00N 39°10' W 029°32'4 7.2
2017-Sep-15 02:30N 39°09' W 029°27'4 7.1
2017-Sep-15 02:00N 39°09' W 029°23'3 6.9
2017-Sep-15 01:30N 39°08' W 029°18'3 6.5
2017-Sep-15 01:00N 39°08' W 029°14'3 6.7
2017-Sep-15 00:30N 39°08' W 029°10'3 6.7
2017-Sep-15 00:00N 39°07' W 029°05'3 5.5
2017-Sep-14 23:30N 39°06' W 029°02'3 5.4
2017-Sep-14 23:00N 39°06' W 028°59'2 5.1
2017-Sep-14 22:30N 39°05' W 028°56'3 5.5
2017-Sep-14 22:00N 39°05' W 028°52'3 5.6
2017-Sep-14 21:31N 39°04' W 028°49'2 4.9
2017-Sep-14 21:00N 39°03' W 028°46'3 5.0
2017-Sep-14 20:30N 39°02' W 028°43'3 6.4
2017-Sep-14 20:00N 39°02' W 028°39'3 5.6
2017-Sep-14 19:30N 39°01' W 028°35'3 5.4
2017-Sep-14 19:00N 39°01' W 028°32'2 4.9
2017-Sep-14 18:30N 39°00' W 028°29'3 5.0
2017-Sep-14 17:59N 38°60' W 028°25'2 5.0
2017-Sep-14 17:30N 38°59' W 028°22'2 3.5
2017-Sep-14 17:01N 38°59' W 028°20'2 4.8
2017-Sep-14 16:30N 38°59' W 028°17'3 5.9
2017-Sep-14 16:00N 38°60' W 028°13'3 6.2
2017-Sep-14 15:31N 38°60' W 028°09'3 6.6
2017-Sep-14 15:00N 38°60' W 028°05'3 6.8
2017-Sep-14 14:30N 38°60' W 028°01'3 5.9
2017-Sep-14 14:01N 39°00' W 027°57'  
Track history (hours):
 
Tides and Currents Weather Stations Pressure Air Temp Water Temp Dewpoint Dewpoint Depression Visibility Wind Speed Wind Dir Waves Ship Positions

Julia

Last reported at 2017-Sep-23 21:04 UTC. Time now 2017-Sep-23 23:56 UTC.
Position N 38°32' W 028°38'.

Length 15 m.

Type: Sailing vessel. MMSI: 244180582.

Date/timePositionNaut miles runAvg speedWind from/ knotsBaromVisibWave heightAir tempDewpointWater temp
2017-Sep-23 21:04N 38°32' W 028°38'0 0.0
2017-Sep-23 20:58N 38°32' W 028°38'0 0.0
2017-Sep-23 20:28N 38°32' W 028°38'0 0.0
2017-Sep-23 19:58N 38°32' W 028°38'  
2017-Sep-15 11:59N 39°21' W 030°54'5 7.8
2017-Sep-15 11:18N 39°20' W 030°47'19 7.6
2017-Sep-15 08:53N 39°17' W 030°24'3 7.1
2017-Sep-15 08:29N 39°16' W 030°20'3 5.6
2017-Sep-15 07:56N 39°16' W 030°16'3 7.0
2017-Sep-15 07:29N 39°16' W 030°12'3 6.6
2017-Sep-15 07:00N 39°16' W 030°08'3 6.5
2017-Sep-15 06:30N 39°15' W 030°04'3 6.7
2017-Sep-15 06:00N 39°15' W 029°60'3 7.1
2017-Sep-15 05:30N 39°14' W 029°55'4 7.3
2017-Sep-15 05:00N 39°13' W 029°51'4 7.7
2017-Sep-15 04:30N 39°12' W 029°46'4 7.8
2017-Sep-15 04:00N 39°11' W 029°41'4 7.6
2017-Sep-15 03:30N 39°10' W 029°36'4 7.2
2017-Sep-15 03:00N 39°10' W 029°32'4 7.2
2017-Sep-15 02:30N 39°09' W 029°27'4 7.1
2017-Sep-15 02:00N 39°09' W 029°23'3 6.9
2017-Sep-15 01:30N 39°08' W 029°18'3 6.5
2017-Sep-15 01:00N 39°08' W 029°14'3 6.7
2017-Sep-15 00:30N 39°08' W 029°10'3 6.7
2017-Sep-15 00:00N 39°07' W 029°05'3 5.5
2017-Sep-14 23:30N 39°06' W 029°02'3 5.4
2017-Sep-14 23:00N 39°06' W 028°59'2 5.1
2017-Sep-14 22:30N 39°05' W 028°56'3 5.5
2017-Sep-14 22:00N 39°05' W 028°52'3 5.6
2017-Sep-14 21:31N 39°04' W 028°49'2 4.9
2017-Sep-14 21:00N 39°03' W 028°46'3 5.0
2017-Sep-14 20:30N 39°02' W 028°43'3 6.4
2017-Sep-14 20:00N 39°02' W 028°39'3 5.6
2017-Sep-14 19:30N 39°01' W 028°35'3 5.4
2017-Sep-14 19:00N 39°01' W 028°32'2 4.9
2017-Sep-14 18:30N 39°00' W 028°29'3 5.0
2017-Sep-14 17:59N 38°60' W 028°25'2 5.0
2017-Sep-14 17:30N 38°59' W 028°22'2 3.5
2017-Sep-14 17:01N 38°59' W 028°20'2 4.8
2017-Sep-14 16:30N 38°59' W 028°17'3 5.9
2017-Sep-14 16:00N 38°60' W 028°13'3 6.2
2017-Sep-14 15:31N 38°60' W 028°09'3 6.6
2017-Sep-14 15:00N 38°60' W 028°05'3 6.8
2017-Sep-14 14:30N 38°60' W 028°01'3 5.9
2017-Sep-14 14:01N 39°00' W 027°57'  

Dump ship's entire track history